createdAt,value
2023-01-29T00:01:25.306Z,-1.44
2023-01-29T00:03:52.483Z,-1.38
2023-01-29T00:06:19.498Z,-1.33
2023-01-29T00:08:46.897Z,-1.45
2023-01-29T00:11:14.224Z,-1.40
2023-01-29T00:13:41.507Z,-1.57
2023-01-29T00:16:09.272Z,-1.59
2023-01-29T00:18:42.889Z,-1.53
2023-01-29T00:21:14.587Z,-1.56
2023-01-29T00:23:42.232Z,-1.60
2023-01-29T00:26:09.799Z,-1.59
2023-01-29T00:28:37.319Z,-1.56
2023-01-29T00:31:14.873Z,-1.48
2023-01-29T00:33:42.124Z,-1.54
2023-01-29T00:36:10.598Z,-1.59
2023-01-29T00:38:37.646Z,-1.58
2023-01-29T00:41:33.619Z,-1.71
2023-01-29T00:44:19.627Z,-1.62
2023-01-29T00:46:47.083Z,-1.65
2023-01-29T00:49:14.219Z,-1.56
2023-01-29T00:51:41.290Z,-1.59
2023-01-29T00:54:08.066Z,-1.58
2023-01-29T00:56:36.026Z,-1.58
2023-01-29T00:59:03.745Z,-1.52
2023-01-29T01:01:48.859Z,-1.51
2023-01-29T01:04:15.605Z,-1.61
2023-01-29T01:06:42.801Z,-1.67
2023-01-29T01:09:30.895Z,-1.69
2023-01-29T01:11:57.956Z,-1.58
2023-01-29T01:14:25.185Z,-1.49
2023-01-29T01:16:52.184Z,-1.53
2023-01-29T01:19:19.131Z,-1.59
2023-01-29T01:21:48.406Z,-1.80
2023-01-29T01:24:15.615Z,-1.60
2023-01-29T01:26:42.851Z,-1.59
2023-01-29T01:29:09.568Z,-1.54
2023-01-29T01:31:36.996Z,-1.56
2023-01-29T01:34:03.896Z,-1.51
2023-01-29T01:36:32.603Z,-1.45
2023-01-29T01:38:59.541Z,-1.46
2023-01-29T01:41:26.331Z,-1.55
2023-01-29T01:43:56.305Z,-1.48
2023-01-29T01:46:23.439Z,-1.35
2023-01-29T01:48:54.680Z,-1.36
2023-01-29T01:51:22.000Z,-1.46
2023-01-29T01:54:03.258Z,-1.53
2023-01-29T01:56:40.791Z,-1.61
2023-01-29T01:59:10.102Z,-1.52
2023-01-29T02:01:38.438Z,-1.58
2023-01-29T02:04:25.925Z,-1.54
2023-01-29T02:07:11.476Z,-1.57
2023-01-29T02:09:55.673Z,-1.54
2023-01-29T02:12:22.183Z,-1.55
2023-01-29T02:14:48.636Z,-1.62
2023-01-29T02:17:16.683Z,-1.65
2023-01-29T02:20:11.017Z,-1.65
2023-01-29T02:23:15.779Z,-1.78
2023-01-29T02:26:21.493Z,-1.78
2023-01-29T02:29:22.414Z,-1.70
2023-01-29T02:32:04.269Z,-1.68
2023-01-29T02:35:10.869Z,-1.62
2023-01-29T02:37:40.107Z,-1.58
2023-01-29T02:40:14.902Z,-1.59
2023-01-29T02:42:50.700Z,-1.60
2023-01-29T02:45:29.577Z,-1.60
2023-01-29T02:47:58.714Z,-1.61
2023-01-29T02:50:33.110Z,-1.65
2023-01-29T02:53:24.069Z,-1.67
2023-01-29T02:55:55.081Z,-1.69
2023-01-29T02:58:31.173Z,-1.75
2023-01-29T03:01:00.892Z,-1.62
2023-01-29T03:03:31.194Z,-1.69
2023-01-29T03:06:02.547Z,-1.67
2023-01-29T03:08:42.916Z,-1.63
2023-01-29T03:11:15.760Z,-1.73
2023-01-29T03:13:44.284Z,-1.62
2023-01-29T03:16:12.618Z,-1.65
2023-01-29T03:18:46.208Z,-1.68
2023-01-29T03:21:44.169Z,-1.72
2023-01-29T03:24:29.769Z,-1.60
2023-01-29T03:27:15.322Z,-1.60
2023-01-29T03:30:00.054Z,-1.63
2023-01-29T03:32:28.753Z,-1.62
2023-01-29T03:34:58.229Z,-1.63
2023-01-29T03:37:43.859Z,-1.71
2023-01-29T03:40:10.818Z,-1.74
2023-01-29T03:42:55.970Z,-1.70
2023-01-29T03:45:25.392Z,-1.67
2023-01-29T03:48:13.852Z,-1.63
2023-01-29T03:51:04.572Z,-1.66
2023-01-29T03:53:33.738Z,-1.78
2023-01-29T03:56:09.153Z,-1.69
2023-01-29T03:58:50.804Z,-1.68
2023-01-29T04:01:30.796Z,-1.64
2023-01-29T04:04:18.431Z,-1.60
2023-01-29T04:06:45.679Z,-1.70
2023-01-29T04:09:22.212Z,-1.71
2023-01-29T04:11:50.529Z,-1.84
2023-01-29T04:14:17.042Z,-1.84
2023-01-29T04:16:46.587Z,-1.74
2023-01-29T04:19:13.093Z,-1.80
2023-01-29T04:21:39.643Z,-1.83
2023-01-29T04:24:07.148Z,-1.85
2023-01-29T04:26:41.646Z,-1.86
2023-01-29T04:29:33.058Z,-1.76
2023-01-29T04:32:05.864Z,-1.69
2023-01-29T04:34:36.616Z,-1.72
2023-01-29T04:37:17.122Z,-1.79
2023-01-29T04:39:56.020Z,-1.83
2023-01-29T04:42:37.096Z,-1.88
2023-01-29T04:45:41.348Z,-1.85
2023-01-29T04:48:26.985Z,-1.89
2023-01-29T04:51:00.998Z,-1.79
2023-01-29T04:53:52.559Z,-1.79
2023-01-29T04:56:45.180Z,-1.79
2023-01-29T04:59:14.515Z,-1.86
2023-01-29T05:01:41.215Z,-1.95
2023-01-29T05:04:13.375Z,-1.92
2023-01-29T05:06:39.932Z,-1.99
2023-01-29T05:09:06.414Z,-2.03
2023-01-29T05:11:33.397Z,-1.96
2023-01-29T05:14:01.423Z,-1.96
2023-01-29T05:16:41.911Z,-2.03
2023-01-29T05:19:12.596Z,-2.00
2023-01-29T05:21:41.070Z,-2.06
2023-01-29T05:24:13.137Z,-2.08
2023-01-29T05:26:58.799Z,-2.08
2023-01-29T05:29:25.447Z,-2.14
2023-01-29T05:31:51.956Z,-2.11
2023-01-29T05:34:20.479Z,-2.16
2023-01-29T05:36:47.325Z,-2.11
2023-01-29T05:39:13.868Z,-2.13
2023-01-29T05:41:40.445Z,-2.12
2023-01-29T05:44:06.976Z,-2.12
2023-01-29T05:46:33.476Z,-2.11
2023-01-29T05:48:59.952Z,-2.22
2023-01-29T05:51:26.480Z,-2.04
2023-01-29T05:53:52.955Z,-2.11
2023-01-29T05:56:19.407Z,-2.14
2023-01-29T05:58:45.916Z,-2.13
2023-01-29T06:01:14.090Z,-2.10
2023-01-29T06:03:40.964Z,-2.13
2023-01-29T06:06:07.633Z,-2.10
2023-01-29T06:08:34.164Z,-2.10
2023-01-29T06:11:00.793Z,-2.05
2023-01-29T06:13:27.317Z,-2.20
2023-01-29T06:15:53.841Z,-2.17
2023-01-29T06:18:20.366Z,-2.19
2023-01-29T06:20:46.889Z,-2.12
2023-01-29T06:23:13.401Z,-2.18
2023-01-29T06:25:39.871Z,-2.18
2023-01-29T06:28:06.828Z,-2.16
2023-01-29T06:30:33.366Z,-2.22
2023-01-29T06:33:01.557Z,-2.29
2023-01-29T06:35:28.323Z,-2.25
2023-01-29T06:37:54.809Z,-2.31
2023-01-29T06:40:21.284Z,-2.33
2023-01-29T06:42:47.798Z,-2.34
2023-01-29T06:45:14.353Z,-2.40
2023-01-29T06:47:40.812Z,-2.35
2023-01-29T06:50:07.433Z,-2.37
2023-01-29T06:52:33.919Z,-2.27
2023-01-29T06:55:00.405Z,-2.27
2023-01-29T06:57:29.476Z,-2.22
2023-01-29T06:59:56.076Z,-2.29
2023-01-29T07:02:22.612Z,-2.25
2023-01-29T07:04:49.253Z,-2.28
2023-01-29T07:07:15.791Z,-2.27
2023-01-29T07:09:42.506Z,-2.35
2023-01-29T07:12:09.963Z,-2.33
2023-01-29T07:14:36.588Z,-2.63
2023-01-29T07:17:03.083Z,-2.41
2023-01-29T07:19:29.855Z,-2.41
2023-01-29T07:21:56.849Z,-2.39
2023-01-29T07:24:23.333Z,-2.49
2023-01-29T07:26:49.859Z,-2.40
2023-01-29T07:29:16.340Z,-2.51
2023-01-29T07:31:42.977Z,-2.50
2023-01-29T07:34:09.589Z,-2.45
2023-01-29T07:36:37.096Z,-2.35
2023-01-29T07:39:03.715Z,-2.35
2023-01-29T07:41:30.297Z,-2.31
2023-01-29T07:43:56.780Z,-2.23
2023-01-29T07:46:23.255Z,-2.17
2023-01-29T07:48:49.746Z,-2.16
2023-01-29T07:51:18.140Z,-2.37
2023-01-29T07:53:45.045Z,-2.27
2023-01-29T07:56:11.583Z,-2.23
2023-01-29T07:58:38.047Z,-2.35
2023-01-29T08:01:07.883Z,-2.55
2023-01-29T08:03:34.632Z,-2.52
2023-01-29T08:06:01.151Z,-2.43
2023-01-29T08:08:27.614Z,-2.45
2023-01-29T08:10:54.096Z,-2.39
2023-01-29T08:13:20.586Z,-2.36
2023-01-29T08:15:47.152Z,-2.39
2023-01-29T08:18:14.108Z,-2.32
2023-01-29T08:20:40.573Z,-2.67
2023-01-29T08:23:11.968Z,-2.30
2023-01-29T08:25:38.911Z,-2.24
2023-01-29T08:28:05.491Z,-2.12
2023-01-29T08:30:32.833Z,-2.09
2023-01-29T08:32:59.447Z,-2.10
2023-01-29T08:35:26.153Z,-2.37
2023-01-29T08:37:58.247Z,-2.21
2023-01-29T08:40:25.390Z,-2.05
2023-01-29T08:42:51.882Z,-2.04
2023-01-29T08:45:18.412Z,-1.95
2023-01-29T08:47:49.080Z,-2.01
2023-01-29T08:50:16.852Z,-2.22
2023-01-29T08:52:44.018Z,-1.87
2023-01-29T08:55:11.516Z,-1.92
2023-01-29T08:57:38.693Z,-1.91
2023-01-29T09:00:06.351Z,-1.79
2023-01-29T09:02:33.321Z,-1.79
2023-01-29T09:04:59.833Z,-1.68
2023-01-29T09:07:26.339Z,-1.96
2023-01-29T09:09:52.839Z,-2.09
2023-01-29T09:12:19.310Z,-1.87
2023-01-29T09:14:45.855Z,-1.77
2023-01-29T09:17:12.347Z,-1.96
2023-01-29T09:19:38.806Z,-1.95
2023-01-29T09:22:05.273Z,-2.15
2023-01-29T09:24:32.717Z,-2.08
2023-01-29T09:26:59.219Z,-2.08
2023-01-29T09:29:25.693Z,-2.11
2023-01-29T09:31:52.380Z,-2.33
2023-01-29T09:34:18.933Z,-2.21
2023-01-29T09:36:45.469Z,-2.15
2023-01-29T09:39:12.004Z,-1.95
2023-01-29T09:42:01.578Z,-2.02
2023-01-29T09:44:34.135Z,-1.91
2023-01-29T09:47:00.585Z,-2.07
2023-01-29T09:49:28.924Z,-1.91
2023-01-29T09:52:07.418Z,-2.28
2023-01-29T09:55:02.917Z,-2.36
2023-01-29T09:57:39.309Z,-2.11
2023-01-29T10:00:06.465Z,-2.01
2023-01-29T10:03:11.126Z,-1.96
2023-01-29T10:06:15.051Z,-2.02
2023-01-29T10:08:56.540Z,-1.75
2023-01-29T10:11:50.590Z,-1.83
2023-01-29T10:14:37.912Z,-1.75
2023-01-29T10:17:23.303Z,-1.77
2023-01-29T10:20:01.979Z,-1.41
2023-01-29T10:22:46.578Z,-1.24
2023-01-29T10:25:15.705Z,-1.12
2023-01-29T10:27:47.444Z,-1.16
2023-01-29T10:30:20.986Z,-1.49
2023-01-29T10:32:47.510Z,-1.61
2023-01-29T10:35:24.982Z,-1.48
2023-01-29T10:37:54.883Z,-1.60
2023-01-29T10:40:29.608Z,-1.70
2023-01-29T10:43:11.266Z,-1.77
2023-01-29T10:45:46.903Z,-1.78
2023-01-29T10:48:41.442Z,-1.85
2023-01-29T10:51:46.262Z,-1.82
2023-01-29T10:54:22.791Z,-1.80
2023-01-29T10:57:02.214Z,-1.95
2023-01-29T10:59:43.544Z,-2.01
2023-01-29T11:02:18.146Z,-1.87
2023-01-29T11:04:44.929Z,-1.54
2023-01-29T11:07:12.550Z,-1.72
2023-01-29T11:09:57.720Z,-1.31
2023-01-29T11:12:30.365Z,-1.33
2023-01-29T11:15:04.086Z,-1.19
2023-01-29T11:17:30.663Z,-1.35
2023-01-29T11:19:57.183Z,-1.26
2023-01-29T11:22:25.644Z,-1.31
2023-01-29T11:25:07.217Z,-1.29
2023-01-29T11:27:35.463Z,-1.17
2023-01-29T11:30:01.977Z,-1.47
2023-01-29T11:32:29.654Z,-1.27
2023-01-29T11:35:14.730Z,-1.24
2023-01-29T11:37:45.157Z,-1.82
2023-01-29T11:40:23.809Z,-1.27
2023-01-29T11:42:50.510Z,-1.39
2023-01-29T11:45:20.079Z,-1.03
2023-01-29T11:47:50.461Z,-1.27
2023-01-29T11:50:21.774Z,-1.71
2023-01-29T11:52:48.710Z,-1.34
2023-01-29T11:55:21.363Z,-1.18
2023-01-29T11:57:58.162Z,-1.22
2023-01-29T12:00:31.753Z,-1.13
2023-01-29T12:03:16.420Z,-1.16
2023-01-29T12:05:54.676Z,-0.96
2023-01-29T12:08:22.900Z,-0.87
2023-01-29T12:10:49.539Z,-0.77
2023-01-29T12:13:25.571Z,-0.95
2023-01-29T12:16:05.099Z,-0.58
2023-01-29T12:18:41.721Z,-0.63
2023-01-29T12:21:32.984Z,-0.35
2023-01-29T12:24:20.558Z,-0.49
2023-01-29T12:26:50.938Z,-0.45
2023-01-29T12:29:47.008Z,-0.26
2023-01-29T12:32:25.285Z,-0.69
2023-01-29T12:35:22.295Z,-0.20
2023-01-29T12:37:56.530Z,-0.23
2023-01-29T12:40:25.413Z,-0.66
2023-01-29T12:42:55.303Z,-0.84
2023-01-29T12:45:23.420Z,-0.69
2023-01-29T12:47:58.847Z,-0.84
2023-01-29T12:50:35.530Z,-0.46
2023-01-29T12:53:03.354Z,-0.12
2023-01-29T12:55:34.372Z,0.03
2023-01-29T12:58:02.501Z,-0.71
2023-01-29T13:00:32.283Z,-0.26
2023-01-29T13:03:06.217Z,-0.31
2023-01-29T13:05:46.551Z,-0.47
2023-01-29T13:08:51.501Z,-0.59
2023-01-29T13:11:27.041Z,-0.71
2023-01-29T13:14:05.885Z,-0.62
2023-01-29T13:16:40.866Z,-0.79
2023-01-29T13:19:33.432Z,-0.66
2023-01-29T13:22:02.252Z,-0.67
2023-01-29T13:24:34.277Z,-0.43
2023-01-29T13:27:00.772Z,-0.42
2023-01-29T13:29:29.200Z,-0.66
2023-01-29T13:31:56.658Z,-0.55
2023-01-29T13:34:33.961Z,-0.53
2023-01-29T13:37:09.193Z,-0.63
2023-01-29T13:39:44.909Z,-0.58
2023-01-29T13:42:25.260Z,-0.52
2023-01-29T13:44:54.350Z,-0.57
2023-01-29T13:47:28.720Z,-0.54
2023-01-29T13:50:02.510Z,-0.66
2023-01-29T13:52:40.789Z,-0.54
2023-01-29T13:55:08.351Z,-0.67
2023-01-29T13:57:44.070Z,-0.69
2023-01-29T14:00:22.705Z,-0.46
2023-01-29T14:02:55.013Z,-0.36
2023-01-29T14:05:30.675Z,-0.48
2023-01-29T14:07:59.265Z,-0.61
2023-01-29T14:10:26.952Z,-0.54
2023-01-29T14:13:11.692Z,-0.68
2023-01-29T14:15:44.214Z,-0.66
2023-01-29T14:18:19.383Z,-0.46
2023-01-29T14:21:07.530Z,-0.35
2023-01-29T14:23:41.612Z,-0.38
2023-01-29T14:26:27.451Z,-0.49
2023-01-29T14:28:58.844Z,-0.56
2023-01-29T14:31:42.067Z,-0.48
2023-01-29T14:34:18.200Z,-0.59
2023-01-29T14:36:45.036Z,-0.64
2023-01-29T14:39:28.606Z,-0.79
2023-01-29T14:41:55.167Z,-0.67
2023-01-29T14:44:47.241Z,-0.60
2023-01-29T14:47:40.477Z,-0.61
2023-01-29T14:50:25.726Z,-0.58
2023-01-29T14:52:53.917Z,-0.64
2023-01-29T14:55:43.057Z,-0.49
2023-01-29T14:58:22.792Z,-0.44
2023-01-29T15:00:51.224Z,-0.55
2023-01-29T15:03:20.763Z,-0.69
2023-01-29T15:05:47.239Z,-0.44
2023-01-29T15:08:37.681Z,-0.37
2023-01-29T15:11:25.981Z,-0.48
2023-01-29T15:13:55.856Z,-0.58
2023-01-29T15:16:27.329Z,-0.61
2023-01-29T15:18:56.784Z,-0.70
2023-01-29T15:21:23.261Z,-0.80
2023-01-29T15:23:53.597Z,-0.77
2023-01-29T15:26:25.345Z,-0.85
2023-01-29T15:29:04.934Z,-0.89
2023-01-29T15:31:32.097Z,-0.95
2023-01-29T15:34:00.182Z,-0.86
2023-01-29T15:36:28.459Z,-0.90
2023-01-29T15:39:13.055Z,-0.88
2023-01-29T15:41:39.604Z,-0.90
2023-01-29T15:44:20.082Z,-1.05
2023-01-29T15:46:56.949Z,-1.19
2023-01-29T15:49:34.557Z,-1.09
2023-01-29T15:52:04.357Z,-1.03
2023-01-29T15:54:31.392Z,-1.17
2023-01-29T15:56:58.062Z,-1.12
2023-01-29T15:59:44.180Z,-1.17
2023-01-29T16:02:37.627Z,-1.13
2023-01-29T16:05:05.809Z,-1.12
2023-01-29T16:07:32.389Z,-1.13
2023-01-29T16:09:58.953Z,-1.24
2023-01-29T16:12:25.431Z,-1.17
2023-01-29T16:14:51.917Z,-1.16
2023-01-29T16:17:29.309Z,-1.11
2023-01-29T16:19:59.661Z,-1.14
2023-01-29T16:22:31.006Z,-1.11
2023-01-29T16:25:01.117Z,-1.18
2023-01-29T16:27:27.757Z,-1.16
2023-01-29T16:29:54.274Z,-1.22
2023-01-29T16:32:20.917Z,-1.44
2023-01-29T16:34:52.452Z,-1.23
2023-01-29T16:37:23.497Z,-1.30
2023-01-29T16:39:50.841Z,-1.24
2023-01-29T16:42:21.358Z,-1.32
2023-01-29T16:44:58.402Z,-1.33
2023-01-29T16:47:35.908Z,-1.32
2023-01-29T16:50:17.295Z,-1.30
2023-01-29T16:53:01.980Z,-1.28
2023-01-29T16:55:33.297Z,-1.34
2023-01-29T16:58:01.457Z,-1.32
2023-01-29T17:00:28.937Z,-1.29
2023-01-29T17:02:59.539Z,-1.35
2023-01-29T17:05:30.435Z,-1.33
2023-01-29T17:07:58.379Z,-1.33
2023-01-29T17:10:25.554Z,-1.34
2023-01-29T17:12:55.126Z,-1.35
2023-01-29T17:15:36.802Z,-1.34
2023-01-29T17:18:03.444Z,-1.39
2023-01-29T17:20:30.066Z,-1.40
2023-01-29T17:22:56.619Z,-1.43
2023-01-29T17:25:23.707Z,-1.37
2023-01-29T17:27:52.120Z,-1.39
2023-01-29T17:30:19.968Z,-1.50
2023-01-29T17:32:47.306Z,-1.50
2023-01-29T17:35:15.414Z,-1.48
2023-01-29T17:37:42.104Z,-1.45
2023-01-29T17:40:16.329Z,-1.49
2023-01-29T17:42:42.891Z,-1.48
2023-01-29T17:45:10.753Z,-1.54
2023-01-29T17:47:37.263Z,-1.65
2023-01-29T17:50:12.395Z,-1.70
2023-01-29T17:52:38.881Z,-1.94
2023-01-29T17:55:05.956Z,-2.04
2023-01-29T17:57:32.840Z,-2.00
2023-01-29T17:59:59.359Z,-2.04
2023-01-29T18:02:29.489Z,-2.01
2023-01-29T18:04:56.865Z,-2.09
2023-01-29T18:07:23.355Z,-2.05
2023-01-29T18:09:49.840Z,-2.08
2023-01-29T18:12:16.338Z,-2.12
2023-01-29T18:14:42.857Z,-2.20
2023-01-29T18:17:09.334Z,-2.30
2023-01-29T18:19:35.845Z,-2.33
2023-01-29T18:22:02.385Z,-2.37
2023-01-29T18:24:29.972Z,-2.36
2023-01-29T18:26:56.506Z,-2.33
2023-01-29T18:29:29.389Z,-2.30
2023-01-29T18:31:56.223Z,-2.36
2023-01-29T18:34:22.757Z,-2.38
2023-01-29T18:36:50.141Z,-2.39
2023-01-29T18:39:16.841Z,-2.39
2023-01-29T18:41:43.353Z,-2.48
2023-01-29T18:44:10.586Z,-2.48
2023-01-29T18:46:37.255Z,-2.53
2023-01-29T18:49:05.086Z,-2.62
2023-01-29T18:51:31.806Z,-2.55
2023-01-29T18:53:58.343Z,-2.50
2023-01-29T18:56:24.932Z,-2.55
2023-01-29T18:58:55.345Z,-2.61
2023-01-29T19:01:22.562Z,-2.62
2023-01-29T19:03:49.129Z,-2.61
2023-01-29T19:06:15.682Z,-2.61
2023-01-29T19:08:43.725Z,-2.74
2023-01-29T19:11:12.398Z,-2.71
2023-01-29T19:13:38.968Z,-2.70
2023-01-29T19:16:09.251Z,-2.83
2023-01-29T19:18:35.854Z,-2.83
2023-01-29T19:21:06.581Z,-2.92
2023-01-29T19:23:33.099Z,-2.81
2023-01-29T19:25:59.608Z,-2.86
2023-01-29T19:28:26.350Z,-2.93
2023-01-29T19:30:52.997Z,-2.95
2023-01-29T19:33:19.845Z,-2.90
2023-01-29T19:35:46.371Z,-2.87
2023-01-29T19:38:18.552Z,-2.86
2023-01-29T19:40:45.226Z,-2.96
2023-01-29T19:43:13.434Z,-2.83
2023-01-29T19:45:49.736Z,-2.79
2023-01-29T19:48:22.761Z,-2.77
2023-01-29T19:50:59.951Z,-2.84
2023-01-29T19:53:27.891Z,-2.84
2023-01-29T19:56:03.099Z,-2.76
2023-01-29T19:58:29.762Z,-2.66
2023-01-29T20:01:00.705Z,-2.56
2023-01-29T20:03:27.725Z,-2.49
2023-01-29T20:05:54.480Z,-2.41
2023-01-29T20:08:21.053Z,-2.44
2023-01-29T20:10:48.453Z,-2.33
2023-01-29T20:13:15.103Z,-2.28
2023-01-29T20:15:48.761Z,-2.24
2023-01-29T20:18:15.289Z,-2.14
2023-01-29T20:20:53.088Z,-2.00
2023-01-29T20:23:31.689Z,-2.09
2023-01-29T20:26:03.690Z,-2.05
2023-01-29T20:28:30.189Z,-2.00
2023-01-29T20:30:58.172Z,-1.97
2023-01-29T20:33:25.339Z,-1.96
2023-01-29T20:35:59.540Z,-1.93
2023-01-29T20:38:30.372Z,-1.93
2023-01-29T20:41:12.399Z,-1.92
2023-01-29T20:43:39.119Z,-1.91
2023-01-29T20:46:05.778Z,-1.98
2023-01-29T20:48:33.089Z,-1.93
2023-01-29T20:51:06.603Z,-1.99
2023-01-29T20:53:33.138Z,-2.00
2023-01-29T20:55:59.782Z,-1.97
2023-01-29T20:58:26.556Z,-1.97
2023-01-29T21:00:53.067Z,-1.98
2023-01-29T21:03:19.630Z,-2.14
2023-01-29T21:05:46.403Z,-2.12
2023-01-29T21:08:12.980Z,-2.15
2023-01-29T21:10:39.451Z,-2.15
2023-01-29T21:13:06.034Z,-2.11
2023-01-29T21:15:32.506Z,-2.15
2023-01-29T21:18:02.524Z,-2.20
2023-01-29T21:20:29.053Z,-2.15
2023-01-29T21:22:55.583Z,-2.15
2023-01-29T21:25:23.009Z,-2.15
2023-01-29T21:27:49.923Z,-2.12
2023-01-29T21:30:18.146Z,-2.16
2023-01-29T21:32:45.305Z,-2.15
2023-01-29T21:35:11.879Z,-2.18
2023-01-29T21:37:38.425Z,-2.20
2023-01-29T21:40:05.838Z,-2.26
2023-01-29T21:42:50.935Z,-2.24
2023-01-29T21:45:17.539Z,-2.25
2023-01-29T21:47:44.023Z,-2.26
2023-01-29T21:50:11.139Z,-2.24
2023-01-29T21:52:38.221Z,-2.23
2023-01-29T21:55:05.163Z,-2.29
2023-01-29T21:57:31.784Z,-2.23
2023-01-29T21:59:59.357Z,-2.23
2023-01-29T22:02:32.001Z,-2.24
2023-01-29T22:05:16.553Z,-2.22
2023-01-29T22:07:45.042Z,-2.24
2023-01-29T22:10:12.366Z,-2.26
2023-01-29T22:12:39.385Z,-2.35
2023-01-29T22:15:07.961Z,-2.32
2023-01-29T22:17:35.271Z,-2.36
2023-01-29T22:20:01.914Z,-2.40
2023-01-29T22:22:28.462Z,-2.33
2023-01-29T22:24:56.426Z,-2.39
2023-01-29T22:27:22.908Z,-2.39
2023-01-29T22:29:49.499Z,-2.46
2023-01-29T22:32:16.396Z,-2.43
2023-01-29T22:34:42.978Z,-2.48
2023-01-29T22:37:09.478Z,-2.43
2023-01-29T22:39:36.027Z,-2.48
2023-01-29T22:42:02.530Z,-2.46
2023-01-29T22:44:29.063Z,-2.37
2023-01-29T22:46:55.518Z,-2.32
2023-01-29T22:49:23.076Z,-2.30
2023-01-29T22:52:10.142Z,-2.38
2023-01-29T22:54:38.216Z,-2.29
2023-01-29T22:57:05.014Z,-2.26
2023-01-29T22:59:32.084Z,-2.26
2023-01-29T23:01:58.654Z,-2.27
2023-01-29T23:04:25.247Z,-2.22
2023-01-29T23:06:51.824Z,-2.22
2023-01-29T23:09:18.318Z,-2.24
2023-01-29T23:11:44.818Z,-2.27
2023-01-29T23:14:11.373Z,-2.33
2023-01-29T23:16:37.829Z,-2.36
2023-01-29T23:19:04.327Z,-2.39
2023-01-29T23:21:31.986Z,-2.33
2023-01-29T23:23:59.540Z,-2.33
2023-01-29T23:26:45.229Z,-2.40
2023-01-29T23:29:11.813Z,-2.35
2023-01-29T23:31:38.698Z,-2.35
2023-01-29T23:34:05.319Z,-2.29
2023-01-29T23:36:31.798Z,-2.27
2023-01-29T23:38:58.331Z,-2.17
2023-01-29T23:41:24.857Z,-2.12
2023-01-29T23:43:52.716Z,-2.14
2023-01-29T23:46:19.277Z,-2.10
2023-01-29T23:48:46.221Z,-2.11
2023-01-29T23:51:12.711Z,-2.11
2023-01-29T23:53:39.227Z,-2.14
2023-01-29T23:56:06.026Z,-2.23
2023-01-29T23:58:32.871Z,-2.30
